Yellow Mule RAWS (NWS)

Jump to table bottom
Date/Time Wind Direction Wind Speed knots Wind Gust knots RH % Accumulated Precip Inches Air Temp Fahrenheit
2022-12-07 01:04 S 7 13 86 13.72 8
2022-12-07 00:04 S 9 18 87 13.72 7
2022-12-06 23:04 S 9 25 85 13.72 10
2022-12-06 22:04 S 10 31 79 13.72 12
2022-12-06 21:04 SSW 23 34 77 13.72 13
2022-12-06 20:04 SSW 27 36 77 13.72 14
2022-12-06 19:04 SSW 15 27 78 13.72 13
2022-12-06 18:04 SSW 19 28 79 13.72 14
2022-12-06 17:04 S 10 26 83 13.72 13
2022-12-06 16:04 SSW 15 28 81 13.72 15
2022-12-06 15:04 S 13 23 82 13.72 15
2022-12-06 14:04 S 16 27 81 13.72 16
2022-12-06 13:04 S 14 26 80 13.72 16
2022-12-06 12:04 S 10 30 83 13.72 14
2022-12-06 11:04 SSW 14 29 84 13.72 13
2022-12-06 10:04 S 13 28 86 13.72 12
2022-12-06 09:04 SSW 17 27 86 13.72 12
2022-12-06 08:04 SSW 15 22 86 13.72 11
2022-12-06 07:04 SSW 13 25 87 13.72 11
2022-12-06 06:04 SSW 19 30 87 13.72 11
2022-12-06 05:04 SSW 19 27 87 13.72 10
2022-12-06 04:04 SSW 19 30 87 13.72 11
2022-12-06 03:04 S 17 38 87 13.72 11
2022-12-06 02:04 SSW 22 33 87 13.72 11
2022-12-06 01:04 S 18 35 87 13.72 11
2022-12-06 00:04 SSW 22 39 87 13.72 11
2022-12-05 23:04 SSW 26 40 88 13.72 11
2022-12-05 22:04 SSW 18 35 87 13.72 11
2022-12-05 21:04 SSW 22 34 87 13.72 11
2022-12-05 20:04 SSW 23 30 87 13.72 11
2022-12-05 19:04 SSW 17 27 88 13.72 12
2022-12-05 18:04 SSW 17 28 88 13.72 12
2022-12-05 17:04 SSW 18 31 88 13.72 12
2022-12-05 16:04 SSW 17 30 88 13.72 13
2022-12-05 15:04 SSW 17 27 88 13.72 14
2022-12-05 14:04 SSW 16 29 88 13.72 14
2022-12-05 13:04 S 13 27 88 13.72 14
2022-12-05 12:04 S 15 28 88 13.72 14
2022-12-05 11:04 SSW 16 24 89 13.72 14
2022-12-05 10:04 SSW 16 25 89 13.72 14
2022-12-05 09:04 SSW 17 31 89 13.72 14
2022-12-05 08:04 SSW 21 30 89 13.72 14
2022-12-05 07:04 SSW 19 25 89 13.72 13
2022-12-05 06:04 SSW 18 29 90 13.72 14
2022-12-05 05:04 SW 13 20 90 13.72 15
2022-12-05 04:04 SW 12 20 91 13.72 16
2022-12-05 03:04 WSW 11 21 91 13.72 17
2022-12-05 02:04 SSW 10 18 92 13.72 19
2022-12-05 01:04 SSW 10 26 93 13.72 20
2022-12-05 00:04 SSW 15 20 93 13.72 20